createdAt,value
2019-03-16T15:00:19.847Z,99985.13
2019-03-16T15:02:50.521Z,99989.86
2019-03-16T15:05:21.022Z,99991.45
2019-03-16T15:07:51.493Z,99988.16
2019-03-16T15:10:22.025Z,99986.50
2019-03-16T15:12:52.452Z,99988.71
2019-03-16T15:15:22.967Z,99977.98
2019-03-16T15:17:53.482Z,99983.45
2019-03-16T15:20:23.917Z,99988.55
2019-03-16T15:22:54.507Z,99995.18
2019-03-16T15:25:25.063Z,99987.36
2019-03-16T15:27:55.551Z,99988.15
2019-03-16T15:30:26.089Z,99985.10
2019-03-16T15:33:00.294Z,99994.06
2019-03-16T15:35:30.204Z,99991.98
2019-03-16T15:38:00.721Z,99999.23
2019-03-16T15:40:31.343Z,99992.63
2019-03-16T15:43:01.876Z,99995.91
2019-03-16T15:45:32.481Z,100006.81
2019-03-16T15:48:03.098Z,100011.30
2019-03-16T15:50:34.017Z,100015.73
2019-03-16T15:53:04.545Z,100014.38
2019-03-16T15:55:35.164Z,100014.69
2019-03-16T15:58:08.429Z,100013.91
2019-03-16T16:00:39.052Z,100025.10
2019-03-16T16:03:09.646Z,100014.13
2019-03-16T16:05:40.187Z,100015.77
2019-03-16T16:08:10.757Z,100018.97
2019-03-16T16:10:41.380Z,100015.19
2019-03-16T16:13:13.951Z,100009.52
2019-03-16T16:15:44.688Z,100015.84
2019-03-16T16:18:15.205Z,100018.90
2019-03-16T16:20:46.059Z,100021.50
2019-03-16T16:23:16.672Z,100025.90
2019-03-16T16:25:47.145Z,100027.70
2019-03-16T16:28:18.727Z,100029.55
2019-03-16T16:30:49.387Z,100030.48
2019-03-16T16:33:19.977Z,100037.39
2019-03-16T16:35:50.538Z,100033.94
2019-03-16T16:38:20.965Z,100033.39
2019-03-16T16:40:51.456Z,100033.81
2019-03-16T16:43:23.052Z,100043.16
2019-03-16T16:45:53.651Z,100035.16
2019-03-16T16:48:24.280Z,100045.05
2019-03-16T16:50:54.915Z,100040.91
2019-03-16T16:53:25.608Z,100042.14
2019-03-16T16:55:56.592Z,100039.80
2019-03-16T16:58:27.556Z,100039.59
2019-03-16T17:00:58.935Z,100041.72
2019-03-16T17:03:29.583Z,100046.97
2019-03-16T17:06:01.149Z,100046.70
2019-03-16T17:08:31.923Z,100043.89
2019-03-16T17:11:02.480Z,100047.80
2019-03-16T17:13:33.602Z,100050.80
2019-03-16T17:16:05.329Z,100047.13
2019-03-16T17:18:36.783Z,100048.55
2019-03-16T17:21:07.711Z,100050.75
2019-03-16T17:23:38.920Z,100059.77
2019-03-16T17:26:09.762Z,100051.86
2019-03-16T17:28:40.611Z,100059.27
2019-03-16T17:31:12.861Z,100059.19
2019-03-16T17:33:43.679Z,100057.09
2019-03-16T17:36:14.755Z,100061.33
2019-03-16T17:38:45.470Z,100057.37
2019-03-16T17:41:16.032Z,100054.69
2019-03-16T17:43:46.754Z,100058.92
2019-03-16T17:46:18.932Z,100051.42
2019-03-16T17:48:49.616Z,100051.82
2019-03-16T17:51:20.211Z,100047.06
2019-03-16T17:53:50.813Z,100048.02
2019-03-16T17:56:21.419Z,100044.86
2019-03-16T17:58:51.919Z,100038.46
2019-03-16T18:01:22.554Z,100040.50
2019-03-16T18:03:53.218Z,100036.59
2019-03-16T18:06:23.899Z,100033.11
2019-03-16T18:08:54.809Z,100035.81
2019-03-16T18:11:32.470Z,100033.87
2019-03-16T18:14:02.994Z,100029.30
2019-03-16T18:16:33.561Z,100032.36
2019-03-16T18:19:04.221Z,100028.36
2019-03-16T18:21:34.779Z,100026.34
2019-03-16T18:24:05.442Z,100018.70
2019-03-16T18:26:36.071Z,100012.39
2019-03-16T18:29:06.564Z,100008.54
2019-03-16T18:31:37.205Z,100015.94
2019-03-16T18:34:07.670Z,100015.84
2019-03-16T18:36:38.429Z,100007.55
2019-03-16T18:39:08.997Z,100012.44
2019-03-16T18:41:39.552Z,100001.14
2019-03-16T18:44:10.067Z,100003.08
2019-03-16T18:46:40.611Z,100000.48
2019-03-16T18:49:11.118Z,99997.03
2019-03-16T18:51:41.794Z,99997.97
2019-03-16T18:54:12.317Z,99991.82
2019-03-16T18:56:42.998Z,99999.88
2019-03-16T18:59:13.478Z,99991.82
2019-03-16T19:01:44.099Z,100000.88
2019-03-16T19:04:14.775Z,100002.54
2019-03-16T19:06:45.337Z,100002.72
2019-03-16T19:09:15.777Z,100003.08
2019-03-16T19:11:46.277Z,100000.94
2019-03-16T19:14:16.906Z,99993.48
2019-03-16T19:16:47.378Z,99988.41
2019-03-16T19:19:17.881Z,99988.17
2019-03-16T19:21:48.470Z,99981.22
2019-03-16T19:24:18.980Z,99980.70
2019-03-16T19:26:49.507Z,99977.45
2019-03-16T19:29:20.029Z,99968.84
2019-03-16T19:31:50.628Z,99962.73
2019-03-16T19:34:21.140Z,99961.44
2019-03-16T19:36:51.712Z,99957.89
2019-03-16T19:39:24.962Z,99959.73
2019-03-16T19:41:54.568Z,99957.05
2019-03-16T19:44:28.410Z,99950.98
2019-03-16T19:47:02.480Z,99954.18
2019-03-16T19:49:39.102Z,99949.23
2019-03-16T19:52:19.071Z,99955.74
2019-03-16T19:54:53.713Z,99952.64
2019-03-16T19:57:27.895Z,99940.78
2019-03-16T20:00:04.607Z,99957.63
2019-03-16T20:02:47.316Z,99951.08
2019-03-16T20:05:15.847Z,99946.47
2019-03-16T20:07:51.549Z,99937.75
2019-03-16T20:10:23.863Z,99932.06
2019-03-16T20:12:58.842Z,99932.06
2019-03-16T20:15:38.797Z,99932.45
2019-03-16T20:18:12.278Z,99928.91
2019-03-16T20:20:51.145Z,99933.27
2019-03-16T20:26:14.893Z,99925.88
2019-03-16T20:28:58.203Z,99918.56
2019-03-16T20:31:46.156Z,99922.27
2019-03-16T20:34:06.538Z,99912.23
2019-03-16T20:36:42.176Z,99923.84
2019-03-16T20:39:29.561Z,99927.38
2019-03-16T20:42:05.705Z,99924.55
2019-03-16T20:44:36.350Z,99925.14
2019-03-16T20:47:06.973Z,99918.38
2019-03-16T20:49:37.558Z,99915.48
2019-03-16T20:52:08.158Z,99916.78
2019-03-16T20:54:38.783Z,99913.45
2019-03-16T20:57:09.387Z,99916.33
2019-03-16T20:59:41.258Z,99913.12
2019-03-16T21:02:11.793Z,99909.77
2019-03-16T21:04:42.440Z,99910.86
2019-03-16T21:07:13.001Z,99907.14
2019-03-16T21:09:43.650Z,99912.70
2019-03-16T21:12:14.331Z,99914.86
2019-03-16T21:14:45.072Z,99914.95
2019-03-16T21:17:15.657Z,99916.84
2019-03-16T21:19:46.275Z,99921.65
2019-03-16T21:22:16.817Z,99923.16
2019-03-16T21:24:47.449Z,99927.48
2019-03-16T21:27:18.034Z,99924.52
2019-03-16T21:29:48.694Z,99929.79
2019-03-16T21:32:19.347Z,99927.02
2019-03-16T21:34:49.906Z,99923.72
2019-03-16T21:37:20.501Z,99921.72
2019-03-16T21:39:51.213Z,99914.35
2019-03-16T21:42:21.825Z,99916.84
2019-03-16T21:44:52.520Z,99914.73
2019-03-16T21:47:23.059Z,99912.27
2019-03-16T21:49:53.658Z,99907.52
2019-03-16T21:52:24.181Z,99902.48
2019-03-16T21:54:55.488Z,99899.72
2019-03-16T21:57:26.097Z,99895.81
2019-03-16T21:59:56.868Z,99892.53
2019-03-16T22:02:27.340Z,99895.09
2019-03-16T22:04:58.031Z,99894.59
2019-03-16T22:07:28.631Z,99896.34
2019-03-16T22:09:59.319Z,99892.75
2019-03-16T22:12:29.784Z,99893.28
2019-03-16T22:15:00.487Z,99894.95
2019-03-16T22:17:31.086Z,99900.70
2019-03-16T22:20:02.630Z,99899.74
2019-03-16T22:22:33.141Z,99897.06
2019-03-16T22:25:04.225Z,99904.33
2019-03-16T22:27:34.721Z,99902.98
2019-03-16T22:30:10.810Z,99894.49
2019-03-16T22:32:41.362Z,99894.09
2019-03-16T22:35:11.823Z,99893.28
2019-03-16T22:37:42.307Z,99893.33
2019-03-16T22:40:14.782Z,99892.97
2019-03-16T22:42:45.300Z,99883.98
2019-03-16T22:45:15.775Z,99884.16
2019-03-16T22:47:52.528Z,99883.88
2019-03-16T22:50:23.015Z,99883.65
2019-03-16T22:52:53.438Z,99890.52
2019-03-16T22:55:24.071Z,99889.99
2019-03-16T22:57:54.509Z,99882.83
2019-03-16T23:00:26.774Z,99876.23
2019-03-16T23:02:58.792Z,99875.62
2019-03-16T23:05:29.315Z,99874.27
2019-03-16T23:07:59.760Z,99879.20
2019-03-16T23:10:30.331Z,99878.63
2019-03-16T23:13:00.763Z,99874.55
2019-03-16T23:15:31.294Z,99875.17
2019-03-16T23:18:01.823Z,99877.54
2019-03-16T23:20:32.313Z,99872.95
2019-03-16T23:23:02.765Z,99871.56
2019-03-16T23:25:33.302Z,99871.64
2019-03-16T23:28:03.799Z,99869.69
2019-03-16T23:30:34.357Z,99874.14
2019-03-16T23:33:04.852Z,99867.34
2019-03-16T23:35:35.968Z,99862.28
2019-03-16T23:38:06.495Z,99867.13
2019-03-16T23:40:37.027Z,99875.03
2019-03-16T23:43:07.656Z,99877.72
2019-03-16T23:45:38.134Z,99872.59
2019-03-16T23:48:08.626Z,99870.71
2019-03-16T23:50:39.250Z,99871.89
2019-03-16T23:53:09.828Z,99871.00
2019-03-16T23:55:40.366Z,99870.55
2019-03-16T23:58:10.913Z,99862.20
